METAR Data
IDs: Format: Raw Decoded Include TAF

Data at: 0553 UTC 24 Sep 2018

KTYS 240453Z 05003KT 10SM SCT080 OVC130 22/21 A3008 RMK AO2 SLP176 T02170211 402830194 $
KTYS 240353Z 05003KT 10SM OVC070 22/21 A3009 RMK AO2 RAE04 SLP177 P0000 T02170211 $
KTYS 240253Z 08007KT 5SM -RA BR SCT037 SCT048 OVC080 22/21 A3007 RMK AO2 RAB11 SLP173 P0031 60031 T02220206 50005 $
KTYS 240153Z 00000KT 10SM SCT050 OVC110 23/21 A3008 RMK AO2 SLP176 T02280206 $
KTYS 240053Z 04006KT 10SM FEW050 OVC100 23/21 A3006 RMK AO2 SLP169 T02330206 $
KTYS 232353Z 02005KT 10SM SCT050 BKN100 24/21 A3006 RMK AO2 SLP169 T02390206 10283 20239 51012 $
KTYS 232253Z 06005KT 10SM FEW050 OVC100 24/21 A3005 RMK AO2 SLP165 T02440206 $
KTYS 232153Z 36008KT 10SM FEW050 OVC100 26/21 A3004 RMK AO2 SLP160 T02560206 $
KTYS 232053Z 36008KT 10SM FEW050 OVC110 26/21 A3002 RMK AO2 SLP156 T02610211 56015
KTYS 231953Z 34006KT 10SM SCT050 OVC100 28/20 A3003 RMK AO2 SLP158 T02780200
KTYS 231853Z 29004KT 10SM OVC110 28/21 A3004 RMK AO2 SLP162 T02780211
KTYS 231753Z 32005KT 10SM OVC095 27/21 A3007 RMK AO2 SLP170 T02670206 10272 20194 56006
KTYS 231653Z 31006KT 10SM OVC095 26/21 A3007 RMK AO2 SLP172 T02610206
KTYS 231553Z 00000KT 10SM BKN090 OVC250 27/21 A3008 RMK AO2 SLP174 T02670206
KTYS 231453Z 00000KT 10SM SCT050 BKN085 OVC250 24/21 A3009 RMK AO2 SLP177 T02440211 53010
KTYS 231441Z 00000KT 10SM SCT050 BKN085 OVC250 24/22 A3009 RMK AO2 T02390217
KTYS 231426Z 01004KT 10SM BKN004 OVC090 23/22 A3009 RMK AO2 T02280217
KTYS 231353Z VRB03KT 2SM BR OVC002 21/21 A3008 RMK AO2 SFC VIS 6 SLP178 T02110211
KTYS 231253Z 07004KT 1/16SM FG VV002 20/20 A3006 RMK AO2 SFC VIS 1/4 SLP168 T02000200 RVRNO
KTYS 231153Z 09004KT 1/16SM FG BKN003 OVC030 19/19 A3006 RMK AO2 SFC VIS 1/8 SLP167 T01940194 10228 20194 53005 RVRNO
KTYS 231145Z 00000KT 1/16SM FG BKN003 OVC030 20/20 A3006 RMK AO2 SFC VIS 1/8 T02000200 RVRNO
KTYS 231137Z 10003KT 1/16SM FG SCT003 SCT025 BKN150 19/19 A3005 RMK AO2 SFC VIS 1/8 T01940194 RVRNO
KTYS 231053Z 00000KT 7SM CLR 20/20 A3005 RMK AO2 SLP164 T02000200
KTYS 230953Z 35004KT 10SM CLR 21/21 A3004 RMK AO2 SLP162 T02060206
KTYS 230853Z 00000KT 10SM CLR 21/21 A3004 RMK AO2 SLP161 T02060206 55002
KTYS 230753Z 00000KT 10SM SCT070 22/21 A3004 RMK AO2 SLP158 T02170206
KTYS 230653Z 01004KT 10SM SCT070 22/21 A3004 RMK AO2 SLP161 T02170206
KTYS 230553Z 01004KT 10SM SCT060 23/21 A3005 RMK AO2 SLP162 T02280206 10278 20228 58004
KTYS 230453Z 00000KT 10SM SCT060 23/21 A3006 RMK AO2 SLP168 T02280206 403110200
KTYS 230353Z 02004KT 10SM FEW050 BKN095 23/21 A3007 RMK AO2 SLP170 T02330206
KTYS 230253Z 35004KT 10SM SCT055 SCT200 24/21 A3006 RMK AO2 SLP167 T02390206 51013
KTYS 230153Z 02006KT 10SM SCT055 BKN080 BKN200 24/21 A3006 RMK AO2 SLP166 T02440211
KTYS 230053Z 00000KT 10SM FEW060 SCT200 27/21 A3004 RMK AO2 SLP159 T02720211
KTYS 222353Z 00000KT 10SM SCT060 SCT200 28/21 A3002 RMK AO2 SLP154 T02780206 10311 20278 53003
KTYS 222253Z 00000KT 10SM SCT060 SCT200 30/20 A3002 RMK AO2 SLP152 T03000200
KTYS 222153Z VRB03KT 10SM FEW040 SCT060 SCT200 31/20 A3000 RMK AO2 SLP148 T03060200
KTYS 222053Z 00000KT 10SM SCT050 SCT060 SCT200 31/19 A3001 RMK AO2 SLP150 T03060194 56027
KTYS 221953Z 26005KT 10SM SCT045 SCT070 BKN250 30/20 A3003 RMK AO2 SLP156 T03000200
KTYS 221853Z 24007KT 10SM SCT040 SCT250 29/20 A3006 RMK AO2 SLP167 T02940200